DAA weather

Davison Army Air Field
Fort Belvoir, Virginia, United States

Public forecast

Using degrees Fahrenheit for public forecast. Weather courtesy of forecast.io.

METAR (pilot weather report)

Retrieved 2019/05/23 01:56 UTC (46 minutes ago):

KDAA 230156Z AUTO 00000KT 10SM CLR 16/10 A3025 RMK AO2 SLP247 T01550098 $

TAF (pilot weather forecast)

Retrieved 2019/05/23 01:37 UTC (1 hour ago):

TAF KDAA 230100Z 2301/2407 14006KT 9999 FEW035 QNH3022INS BECMG 2308/2309 19009KT 9999 SCT020 QNH3015INS BECMG 2316/2317 22010G15KT 9999 FEW055 QNH3002INS BECMG 2320/2321 22015G20KT 9000 -SHRA FEW040 QNH2993INS BECMG 2323/2324 21009KT 9999 NSW FEW045 QNH2991INS TX31/2321Z TN12/2308Z LAST NO AMDS AFT 2301 NEXT 2309